Time;durP1;ratioP1;P1;durP2;ratioP2;P2;SDS_P1;SDS_P2;PMS_P1;PMS_P2;Temp;Humidity;BMP_temperature;BMP_pressure;BME280_temperature;BME280_humidity;BME280_pressure;Samples;Min_cycle;Max_cycle;Signal;HPM_P1;HPM_P2
2022/04/17 00:00:16;;;;;;;14.82;9.50;;;6.30;99.90;;;;;;5095952;28;20147;-68
2022/04/17 00:02:43;;;;;;;23.27;9.90;;;6.10;99.90;;;;;;5095822;28;20024;-68
2022/04/17 00:05:08;;;;;;;16.80;10.07;;;6.10;99.90;;;;;;5094780;28;20427;-68
2022/04/17 00:07:34;;;;;;;20.02;11.70;;;6.00;99.90;;;;;;5095757;28;20107;-68
2022/04/17 00:10:00;;;;;;;26.33;14.02;;;5.90;99.90;;;;;;5095643;28;20020;-68
2022/04/17 00:12:27;;;;;;;25.52;14.02;;;5.80;99.90;;;;;;5095697;28;20107;-68
2022/04/17 00:14:54;;;;;;;37.60;19.10;;;5.80;99.90;;;;;;5095606;28;20020;-68
2022/04/17 00:17:20;;;;;;;43.05;21.30;;;5.70;99.90;;;;;;5095528;28;20020;-68
2022/04/17 00:19:46;;;;;;;37.83;19.95;;;5.70;99.90;;;;;;5095567;28;20035;-68
2022/04/17 00:22:14;;;;;;;29.90;16.05;;;5.70;99.90;;;;;;5094202;28;20024;-68
2022/04/17 00:24:40;;;;;;;28.05;14.73;;;5.70;99.90;;;;;;5095350;28;20549;-68
2022/04/17 00:27:06;;;;;;;22.02;13.65;;;5.60;99.90;;;;;;5095408;28;20109;-68
2022/04/17 00:29:32;;;;;;;25.00;14.45;;;5.50;99.90;;;;;;5095602;28;20059;-68
2022/04/17 00:31:57;;;;;;;22.48;13.30;;;5.40;99.90;;;;;;5095293;28;20089;-68
2022/04/17 00:34:24;;;;;;;21.63;13.27;;;5.50;99.90;;;;;;5095271;28;20035;-68
2022/04/17 00:36:50;;;;;;;18.05;11.10;;;5.50;99.90;;;;;;5095431;28;20386;-68
2022/04/17 00:39:15;;;;;;;23.73;13.65;;;5.50;99.90;;;;;;5095234;28;20031;-68
2022/04/17 00:41:41;;;;;;;25.20;13.82;;;5.40;99.90;;;;;;5095043;28;20452;-68
2022/04/17 00:44:15;;;;;;;30.90;14.68;;;5.30;99.90;;;;;;5093799;28;20436;-68
2022/04/17 00:46:40;;;;;;;21.45;12.98;;;5.30;99.90;;;;;;5095178;28;20035;-68
2022/04/17 00:49:07;;;;;;;16.92;11.13;;;5.20;99.90;;;;;;5094977;28;20025;-68
2022/04/17 00:51:34;;;;;;;17.25;10.77;;;5.20;99.90;;;;;;5094914;28;20024;-68
2022/04/17 00:54:02;;;;;;;18.30;10.40;;;5.30;99.90;;;;;;5095153;28;20482;-68
2022/04/17 00:56:27;;;;;;;19.67;11.10;;;5.20;99.90;;;;;;5094830;28;20125;-68
2022/04/17 00:58:53;;;;;;;16.05;10.63;;;5.30;99.90;;;;;;5093826;28;20405;-68
2022/04/17 01:01:19;;;;;;;18.85;10.68;;;5.20;99.90;;;;;;5095159;28;20034;-68
2022/04/17 01:03:44;;;;;;;15.85;10.95;;;5.10;99.90;;;;;;5093471;28;20036;-68
2022/04/17 01:06:10;;;;;;;18.23;10.85;;;5.20;99.90;;;;;;5094507;28;20225;-68
2022/04/17 01:08:41;;;;;;;17.52;11.15;;;5.20;99.90;;;;;;5094597;28;20032;-68
2022/04/17 01:11:08;;;;;;;18.55;10.75;;;5.20;99.90;;;;;;5094462;28;20081;-68
2022/04/17 01:13:34;;;;;;;15.77;11.00;;;5.20;99.90;;;;;;5094499;28;20039;-68
2022/04/17 01:16:01;;;;;;;18.35;11.57;;;5.20;99.90;;;;;;5094379;28;20032;-68
2022/04/17 01:18:27;;;;;;;16.42;11.00;;;5.10;99.90;;;;;;5094314;28;20089;-68
2022/04/17 01:20:53;;;;;;;19.30;11.20;;;5.00;99.90;;;;;;5093219;28;20028;-68
2022/04/17 01:27:12;;;;;;;17.45;11.80;;;4.90;99.90;;;;;;5093817;28;20124;-68
2022/04/17 01:28:49;;;;;;;20.33;11.75;;;4.90;99.90;;;;;;5094036;28;20152;-68
2022/04/17 01:31:15;;;;;;;17.20;10.95;;;4.90;99.90;;;;;;5092812;28;20024;-67
2022/04/17 01:33:40;;;;;;;20.60;11.48;;;4.90;99.90;;;;;;5092866;28;20036;-68
2022/04/17 01:36:05;;;;;;;19.58;11.45;;;4.90;99.90;;;;;;5094055;28;20059;-68
2022/04/17 01:38:31;;;;;;;19.98;10.82;;;4.90;99.90;;;;;;5093917;28;20059;-68
2022/04/17 01:40:56;;;;;;;20.08;11.88;;;4.90;99.90;;;;;;5093936;28;20028;-68
2022/04/17 01:43:22;;;;;;;16.00;10.95;;;4.90;99.90;;;;;;5094182;28;20386;-68
2022/04/17 01:45:47;;;;;;;16.92;11.02;;;4.90;99.90;;;;;;5092590;28;20031;-68
2022/04/17 01:48:13;;;;;;;18.42;10.68;;;4.80;99.90;;;;;;5092930;28;20012;-68
2022/04/17 01:50:38;;;;;;;16.63;11.27;;;4.80;99.90;;;;;;5093749;28;20020;-68
2022/04/17 01:53:04;;;;;;;16.55;10.65;;;4.70;99.90;;;;;;5093740;28;20024;-68
2022/04/17 01:55:30;;;;;;;18.20;12.02;;;4.70;99.90;;;;;;5093314;28;20030;-68
2022/04/17 01:57:56;;;;;;;19.02;10.75;;;4.70;99.90;;;;;;5092510;28;20032;-68
2022/04/17 02:00:22;;;;;;;18.27;11.02;;;4.70;99.90;;;;;;5092448;28;20024;-68
2022/04/17 02:02:48;;;;;;;17.88;10.77;;;4.70;99.90;;;;;;5093653;28;20482;-68
2022/04/17 02:05:14;;;;;;;16.85;11.57;;;4.60;99.90;;;;;;5092281;28;20078;-68
2022/04/17 02:07:40;;;;;;;17.42;11.10;;;4.70;99.90;;;;;;5093807;28;20079;-68
2022/04/17 02:10:06;;;;;;;19.38;11.48;;;4.60;99.90;;;;;;5093547;28;20107;-68
2022/04/17 02:12:33;;;;;;;21.10;11.35;;;4.60;99.90;;;;;;5093471;28;20051;-68
2022/04/17 02:14:59;;;;;;;15.55;10.95;;;4.60;99.90;;;;;;5093406;28;20038;-68
2022/04/17 02:17:24;;;;;;;19.05;11.35;;;4.50;99.90;;;;;;5093466;28;20103;-68
2022/04/17 02:19:50;;;;;;;17.80;11.70;;;4.50;99.90;;;;;;5093633;28;20024;-68
2022/04/17 02:22:15;;;;;;;19.25;12.45;;;4.50;99.90;;;;;;5093310;28;20027;-68
2022/04/17 02:24:41;;;;;;;25.75;11.73;;;4.40;99.90;;;;;;5093213;28;20048;-68
2022/04/17 02:27:06;;;;;;;17.23;11.50;;;4.40;99.90;;;;;;5093306;28;20161;-68
2022/04/17 02:29:33;;;;;;;15.88;11.07;;;4.40;99.90;;;;;;5092112;28;20051;-68
2022/04/17 02:31:58;;;;;;;20.17;11.90;;;4.40;99.90;;;;;;5093315;28;20012;-68
2022/04/17 02:34:24;;;;;;;19.35;11.90;;;4.30;99.90;;;;;;5093113;28;20031;-68
2022/04/17 02:36:49;;;;;;;21.15;12.18;;;4.30;99.90;;;;;;5093174;28;20032;-68
2022/04/17 02:39:15;;;;;;;17.65;12.00;;;4.30;99.90;;;;;;5093125;28;20020;-68
2022/04/17 02:41:40;;;;;;;20.83;11.88;;;4.30;99.90;;;;;;5093160;28;20020;-68
2022/04/17 02:44:06;;;;;;;19.45;11.63;;;4.30;99.90;;;;;;5093378;28;20016;-68
2022/04/17 02:49:17;;;;;;;19.65;11.40;;;4.40;99.90;;;;;;5092969;28;20021;-68
2022/04/17 02:51:42;;;;;;;17.25;11.35;;;4.30;99.90;;;;;;5093026;28;20115;-68
2022/04/17 02:54:08;;;;;;;18.02;11.82;;;4.30;99.90;;;;;;5093294;28;20535;-68
2022/04/17 02:56:33;;;;;;;16.02;11.10;;;4.20;99.90;;;;;;5093040;28;20024;-68
2022/04/17 02:58:59;;;;;;;20.88;12.63;;;4.20;99.90;;;;;;5093016;28;20028;-68
2022/04/17 03:06:56;;;;;;;17.88;12.18;;;;;;;;;;5093179;28;20482;-68
2022/04/17 03:09:22;;;;;;;18.10;12.45;;;;;;;;;;5097169;28;20070;-68
2022/04/17 03:11:48;;;;;;;17.45;12.00;;;;;;;;;;5096884;28;20031;-69
2022/04/17 03:14:14;;;;;;;16.77;11.95;;;;;;;;;;5095907;28;20445;-68
2022/04/17 03:16:40;;;;;;;19.63;12.25;;;;;;;;;;5096741;28;20028;-68
2022/04/17 03:19:06;;;;;;;20.00;11.95;;;;;;;;;;5096703;28;20034;-68
2022/04/17 03:21:33;;;;;;;20.33;12.55;;;;;;;;;;5096687;28;20023;-68
2022/04/17 03:23:58;;;;;;;21.42;13.02;;;;;;;;;;5095306;28;20429;-68
2022/04/17 03:26:24;;;;;;;22.73;12.93;;;;;;;;;;5095088;28;20040;-68
2022/04/17 03:28:54;;;;;;;19.23;12.68;;;;;;;;;;5096916;28;20069;-68
2022/04/17 03:31:20;;;;;;;18.27;12.73;;;;;;;;;;5096543;28;20020;-68
2022/04/17 03:33:46;;;;;;;20.52;13.35;;;;;;;;;;5096468;28;20104;-68
2022/04/17 03:36:12;;;;;;;17.88;12.93;;;;;;;;;;5095196;28;20036;-68
2022/04/17 03:38:38;;;;;;;20.25;12.38;;;;;;;;;;5096360;28;20068;-68
2022/04/17 03:41:04;;;;;;;20.10;13.30;;;;;;;;;;5096341;28;20039;-68
2022/04/17 03:43:30;;;;;;;21.95;12.95;;;;;;;;;;5096259;28;20060;-68
2022/04/17 03:45:57;;;;;;;23.05;13.57;;;;;;;;;;5096226;28;20478;-68
2022/04/17 03:48:23;;;;;;;22.63;14.00;;;;;;;;;;5096218;28;20494;-68
2022/04/17 03:50:50;;;;;;;23.20;13.43;;;;;;;;;;5096380;28;20424;-68
2022/04/17 03:53:16;;;;;;;19.50;12.55;;;;;;;;;;5096071;28;20020;-68
2022/04/17 03:55:42;;;;;;;20.98;13.45;;;;;;;;;;5096254;28;20033;-68
2022/04/17 03:58:08;;;;;;;22.30;12.82;;;;;;;;;;5095970;28;20502;-68
2022/04/17 04:00:34;;;;;;;21.83;13.73;;;;;;;;;;5095960;28;20516;-68
2022/04/17 04:03:01;;;;;;;19.42;13.27;;;;;;;;;;5095924;28;20390;-68
2022/04/17 04:05:27;;;;;;;18.48;12.75;;;;;;;;;;5094539;28;20475;-68
2022/04/17 04:07:52;;;;;;;17.73;12.43;;;;;;;;;;5095827;28;20078;-68
2022/04/17 04:10:18;;;;;;;20.20;13.02;;;;;;;;;;5095805;28;20386;-68
2022/04/17 04:12:44;;;;;;;23.83;13.45;;;;;;;;;;5095703;28;20027;-68
2022/04/17 04:15:10;;;;;;;24.83;14.65;;;;;;;;;;5095644;28;20035;-68
2022/04/17 04:17:36;;;;;;;23.23;13.43;;;;;;;;;;5095391;28;20034;-68
2022/04/17 04:20:03;;;;;;;21.23;12.95;;;;;;;;;;5095460;28;20105;-68
2022/04/17 04:22:29;;;;;;;19.52;13.02;;;;;;;;;;5095507;28;20111;-68
2022/04/17 04:24:55;;;;;;;20.02;13.38;;;;;;;;;;5095246;28;20119;-68
2022/04/17 04:30:09;;;;;;;20.25;12.88;;;;;;;;;;5095206;28;20032;-68
2022/04/17 04:32:35;;;;;;;21.27;14.00;;;;;;;;;;5095331;28;20022;-68
2022/04/17 04:35:01;;;;;;;21.27;13.40;;;;;;;;;;5095495;28;20024;-68
2022/04/17 04:37:27;;;;;;;20.95;13.85;;;;;;;;;;5095509;28;20396;-68
2022/04/17 04:39:53;;;;;;;22.58;14.00;;;;;;;;;;5094053;28;20029;-68
2022/04/17 04:42:20;;;;;;;21.63;13.45;;;;;;;;;;5095274;28;20028;-68
2022/04/17 04:44:47;;;;;;;20.85;14.20;;;;;;;;;;5095291;28;20385;-68
2022/04/17 04:47:13;;;;;;;24.42;14.10;;;;;;;;;;5095275;28;20024;-68
2022/04/17 04:49:39;;;;;;;23.33;13.65;;;;;;;;;;5094973;28;20107;-68
2022/04/17 04:52:06;;;;;;;19.73;13.73;;;;;;;;;;5093765;28;20051;-68
2022/04/17 04:54:32;;;;;;;23.95;13.88;;;;;;;;;;5093761;28;20489;-68
2022/04/17 04:56:59;;;;;;;24.75;14.00;;;;;;;;;;5095031;28;20084;-68
2022/04/17 04:59:25;;;;;;;21.65;14.15;;;;;;;;;;5094839;28;20485;-68
2022/04/17 05:01:51;;;;;;;21.83;13.15;;;;;;;;;;5095024;28;20394;-68
2022/04/17 05:04:17;;;;;;;19.35;12.85;;;;;;;;;;5094715;28;20117;-68
2022/04/17 05:06:44;;;;;;;21.80;12.93;;;;;;;;;;5094833;28;20478;-68
2022/04/17 05:09:10;;;;;;;21.55;13.18;;;;;;;;;;5094606;28;20020;-68
2022/04/17 05:11:37;;;;;;;21.42;13.10;;;;;;;;;;5093408;28;20520;-68
2022/04/17 05:14:04;;;;;;;22.35;13.10;;;;;;;;;;5094525;28;20386;-68
2022/04/17 05:16:30;;;;;;;21.65;13.00;;;;;;;;;;5093188;28;20470;-68
2022/04/17 05:19:19;;;;;;;18.52;12.35;;;;;;;;;;5094421;28;20066;-68
2022/04/17 05:21:42;;;;;;;16.38;11.93;;;;;;;;;;5094191;28;20085;-68
2022/04/17 05:24:08;;;;;;;19.10;12.00;;;;;;;;;;5094343;28;20032;-68
2022/04/17 05:26:33;;;;;;;21.30;12.90;;;;;;;;;;5094224;28;20117;-68
2022/04/17 05:29:02;;;;;;;21.05;12.68;;;;;;;;;;5094259;28;20028;-68
2022/04/17 05:31:28;;;;;;;18.20;12.05;;;;;;;;;;5093682;28;20047;-68
2022/04/17 05:33:55;;;;;;;22.45;12.45;;;;;;;;;;5094174;28;20470;-68
2022/04/17 05:36:21;;;;;;;19.48;12.18;;;;;;;;;;5094184;28;20027;-68
2022/04/17 05:38:47;;;;;;;21.63;12.70;;;;;;;;;;5093985;28;20040;-68
2022/04/17 05:41:13;;;;;;;17.02;12.18;;;6.30;99.90;;;;;;5093961;28;20098;-68
2022/04/17 05:43:39;;;;;;;22.15;12.77;;;6.50;99.90;;;;;;5093879;28;20028;-68
2022/04/17 05:46:05;;;;;;;16.00;10.77;;;7.80;99.90;;;;;;5094096;28;20032;-68
2022/04/17 05:48:30;;;;;;;17.15;10.93;;;9.60;99.90;;;;;;5093782;28;20363;-68
2022/04/17 05:50:56;;;;;;;17.85;10.90;;;11.10;99.90;;;;;;5092711;28;20026;-68
2022/04/17 05:53:22;;;;;;;14.48;10.48;;;12.70;99.80;;;;;;5093709;28;20115;-68
2022/04/17 05:55:48;;;;;;;14.93;11.30;;;14.10;92.60;;;;;;5093960;28;20047;-68
2022/04/17 05:58:13;;;;;;;14.45;10.85;;;13.40;91.80;;;;;;5093682;28;20081;-68
2022/04/17 06:00:42;;;;;;;12.60;10.13;;;14.50;88.90;;;;;;5093616;28;20032;-68
2022/04/17 06:03:08;;;;;;;13.98;10.45;;;15.40;83.10;;;;;;5093654;28;20102;-69
2022/04/17 06:05:33;;;;;;;13.23;10.30;;;14.00;81.00;;;;;;5093747;28;20055;-68
2022/04/17 06:07:59;;;;;;;12.00;9.98;;;14.70;81.50;;;;;;5093556;28;20035;-69
2022/04/17 06:10:24;;;;;;;11.70;9.63;;;15.30;76.70;;;;;;5093777;28;20428;-67
2022/04/17 06:12:50;;;;;;;10.70;9.27;;;16.00;77.00;;;;;;5093784;28;20028;-67
2022/04/17 06:15:15;;;;;;;12.05;10.35;;;16.60;72.70;;;;;;5093441;28;20024;-67
2022/04/17 06:17:42;;;;;;;11.88;9.57;;;16.90;69.80;;;;;;5093383;28;20024;-67
2022/04/17 06:20:10;;;;;;;11.60;9.27;;;17.80;63.00;;;;;;5093374;28;20017;-66
2022/04/17 06:22:36;;;;;;;12.45;9.80;;;17.40;63.60;;;;;;5093374;28;20067;-67
2022/04/17 06:25:05;;;;;;;14.68;9.13;;;17.00;64.70;;;;;;5093236;28;20499;-66
2022/04/17 06:27:40;;;;;;;11.88;9.85;;;17.60;62.40;;;;;;5093549;28;20487;-67
2022/04/17 06:30:09;;;;;;;13.68;10.30;;;18.00;61.10;;;;;;5093567;28;20025;-67
2022/04/17 06:32:35;;;;;;;12.65;9.70;;;17.80;64.00;;;;;;5093282;28;20024;-67
2022/04/17 06:35:00;;;;;;;11.50;8.80;;;18.60;59.40;;;;;;5093271;28;20066;-67
2022/04/17 06:37:26;;;;;;;10.52;9.32;;;18.80;58.40;;;;;;5093499;28;20389;-67
2022/04/17 06:39:51;;;;;;;10.07;8.82;;;19.00;57.20;;;;;;5093259;28;20024;-67
2022/04/17 06:42:17;;;;;;;10.00;8.93;;;18.90;56.60;;;;;;5095921;28;20101;-67
2022/04/17 06:44:42;;;;;;;11.57;8.77;;;19.30;55.80;;;;;;5097237;28;20028;-67
2022/04/17 06:47:08;;;;;;;11.70;9.50;;;18.90;55.80;;;;;;5097252;28;20099;-67
2022/04/17 06:49:33;;;;;;;10.75;9.50;;;18.90;56.50;;;;;;5097283;28;20028;-67
2022/04/17 06:51:59;;;;;;;12.82;9.55;;;19.60;55.00;;;;;;5097295;28;20493;-67
2022/04/17 06:54:24;;;;;;;10.13;8.60;;;19.20;56.00;;;;;;5097145;28;20024;-67
2022/04/17 06:56:50;;;;;;;10.70;9.43;;;19.40;55.30;;;;;;5097400;28;20490;-67
2022/04/17 06:59:15;;;;;;;10.95;9.07;;;19.80;54.70;;;;;;5097104;28;20024;-67
2022/04/17 07:01:43;;;;;;;9.93;8.93;;;19.80;52.90;;;;;;5096969;28;20028;-68
2022/04/17 07:04:08;;;;;;;9.98;8.55;;;20.40;52.50;;;;;;5097221;28;20020;-68
2022/04/17 07:06:34;;;;;;;9.95;8.05;;;19.90;52.40;;;;;;5096889;28;20028;-68
2022/04/17 07:08:59;;;;;;;8.50;7.53;;;20.60;51.40;;;;;;5096933;28;20039;-68
2022/04/17 07:11:26;;;;;;;9.65;8.23;;;20.40;51.80;;;;;;5095581;28;20391;-67
2022/04/17 07:13:51;;;;;;;9.48;8.43;;;20.40;52.30;;;;;;5096818;28;20488;-68
2022/04/17 07:16:17;;;;;;;9.80;8.77;;;20.10;51.90;;;;;;5096750;28;20111;-68
2022/04/17 07:18:44;;;;;;;10.10;8.43;;;20.40;50.70;;;;;;5095834;28;20024;-68
2022/04/17 07:21:09;;;;;;;10.63;7.78;;;20.40;50.90;;;;;;5095768;28;20542;-68
2022/04/17 07:23:34;;;;;;;11.05;7.75;;;19.90;50.60;;;;;;5096655;28;20024;-68
2022/04/17 07:26:00;;;;;;;11.05;8.02;;;20.50;50.30;;;;;;5096343;28;20052;-68
2022/04/17 07:28:25;;;;;;;10.38;7.70;;;21.40;48.60;;;;;;5096766;28;20024;-68
2022/04/17 07:30:51;;;;;;;9.32;7.53;;;21.70;48.30;;;;;;5096598;28;20024;-68
2022/04/17 07:33:17;;;;;;;8.43;7.45;;;20.20;49.60;;;;;;5096744;28;20488;-68
2022/04/17 07:35:43;;;;;;;8.63;7.72;;;20.90;49.30;;;;;;5095057;28;20024;-68
2022/04/17 07:38:08;;;;;;;7.93;6.80;;;20.10;50.70;;;;;;5096373;28;20028;-68
2022/04/17 07:40:35;;;;;;;8.77;6.22;;;20.20;49.90;;;;;;5096595;28;20477;-68
2022/04/17 07:43:03;;;;;;;8.80;6.22;;;20.10;48.70;;;;;;5096279;28;20115;-68
2022/04/17 07:45:30;;;;;;;9.23;7.53;;;19.40;49.10;;;;;;5096083;28;20027;-68
2022/04/17 07:47:56;;;;;;;7.40;5.88;;;20.10;48.50;;;;;;5095077;28;20489;-68
2022/04/17 07:50:24;;;;;;;6.18;5.55;;;19.40;48.80;;;;;;5096204;28;20028;-68
2022/04/17 07:52:51;;;;;;;8.27;6.25;;;20.10;48.70;;;;;;5095566;28;20470;-68
2022/04/17 07:55:17;;;;;;;9.70;6.60;;;20.10;48.90;;;;;;5095930;28;20028;-68
2022/04/17 07:58:24;;;;;;;8.50;6.22;;;19.90;48.60;;;;;;5094811;28;20115;-68
2022/04/17 08:00:37;;;;;;;7.45;5.70;;;20.40;49.60;;;;;;5095736;28;20078;-68
2022/04/17 08:03:07;;;;;;;7.32;6.25;;;20.50;47.70;;;;;;5096174;28;20429;-68
2022/04/17 08:05:37;;;;;;;7.18;5.95;;;21.00;47.80;;;;;;5096060;28;20031;-68
2022/04/17 08:08:03;;;;;;;7.57;6.05;;;20.30;47.60;;;;;;5095868;28;20544;-68
2022/04/17 08:10:28;;;;;;;4.85;4.05;;;20.90;46.50;;;;;;5095999;28;20052;-68
2022/04/17 08:12:54;;;;;;;4.97;4.20;;;21.70;44.40;;;;;;5094582;28;20382;-68
2022/04/17 08:15:19;;;;;;;6.00;4.80;;;21.50;44.90;;;;;;5095707;28;20039;-68
2022/04/17 08:17:45;;;;;;;6.75;4.72;;;21.30;44.20;;;;;;5094722;28;20436;-68
2022/04/17 08:20:10;;;;;;;6.68;5.28;;;20.20;45.50;;;;;;5095760;28;20060;-68
2022/04/17 08:22:36;;;;;;;5.75;4.25;;;20.80;46.50;;;;;;5095678;28;20024;-68
2022/04/17 08:25:02;;;;;;;7.25;4.38;;;21.00;44.10;;;;;;5095439;28;20158;-68
2022/04/17 08:27:28;;;;;;;5.07;4.10;;;21.30;44.80;;;;;;5094573;28;20394;-68
2022/04/17 08:29:53;;;;;;;5.60;4.78;;;21.00;45.40;;;;;;5095797;28;20069;-68
2022/04/17 08:32:19;;;;;;;6.13;4.18;;;20.90;44.40;;;;;;5095644;28;20066;-68
2022/04/17 08:34:45;;;;;;;4.63;4.10;;;21.10;44.60;;;;;;5095339;28;20031;-68
2022/04/17 08:37:10;;;;;;;5.63;4.88;;;21.10;44.10;;;;;;5095391;28;20028;-68
2022/04/17 08:39:36;;;;;;;6.18;4.40;;;21.20;45.90;;;;;;5095646;28;20359;-68
2022/04/17 08:42:04;;;;;;;4.05;3.58;;;20.50;45.40;;;;;;5095436;28;20012;-68
2022/04/17 08:44:29;;;;;;;5.78;4.00;;;20.40;44.80;;;;;;5095271;28;20055;-68
2022/04/17 08:46:55;;;;;;;4.80;3.70;;;20.00;44.70;;;;;;5095315;28;20074;-68
2022/04/17 08:49:23;;;;;;;5.90;3.80;;;20.70;44.30;;;;;;5093946;28;20021;-68
2022/04/17 08:51:49;;;;;;;5.45;4.35;;;20.10;45.60;;;;;;5094868;28;20031;-68
2022/04/17 08:54:15;;;;;;;4.50;4.10;;;20.50;45.50;;;;;;5094954;28;20028;-69
2022/04/17 08:56:41;;;;;;;6.72;3.95;;;20.80;44.10;;;;;;5094836;28;20072;-68
2022/04/17 08:59:07;;;;;;;6.60;4.70;;;21.30;44.10;;;;;;5094854;28;20031;-69
2022/04/17 09:01:36;;;;;;;5.75;5.15;;;21.80;43.10;;;;;;5094897;28;20032;-69
2022/04/17 09:04:03;;;;;;;5.93;4.45;;;20.90;44.20;;;;;;5094711;28;20055;-69
2022/04/17 09:06:29;;;;;;;7.20;4.40;;;21.30;44.60;;;;;;5093973;28;20024;-69
2022/04/17 09:09:00;;;;;;;6.78;4.70;;;21.20;44.20;;;;;;5094693;28;20028;-69
2022/04/17 09:11:28;;;;;;;6.25;4.72;;;21.70;43.70;;;;;;5094849;28;20421;-69
2022/04/17 09:13:56;;;;;;;6.88;4.68;;;21.20;44.70;;;;;;5094556;28;20085;-69
2022/04/17 09:16:28;;;;;;;5.78;4.80;;;20.10;45.70;;;;;;5094736;28;20382;-69
2022/04/17 09:18:53;;;;;;;6.38;5.10;;;20.30;45.50;;;;;;5094683;28;20030;-69
2022/04/17 09:21:29;;;;;;;6.43;4.78;;;20.80;47.60;;;;;;5094456;28;20103;-69
2022/04/17 09:24:10;;;;;;;6.70;5.05;;;21.60;44.70;;;;;;5094566;28;20031;-69
2022/04/17 09:26:36;;;;;;;9.82;5.57;;;21.70;43.40;;;;;;5094208;28;20036;-68
2022/04/17 09:29:01;;;;;;;7.22;5.30;;;21.70;43.20;;;;;;5094251;28;20051;-69
2022/04/17 09:31:27;;;;;;;6.88;5.15;;;21.90;43.10;;;;;;5094297;28;20086;-68
2022/04/17 09:33:53;;;;;;;5.75;4.90;;;22.40;42.70;;;;;;5094250;28;20425;-68
2022/04/17 09:36:29;;;;;;;6.68;4.90;;;21.50;43.50;;;;;;5094371;28;20028;-68
2022/04/17 09:39:10;;;;;;;7.50;5.40;;;21.50;45.70;;;;;;5094300;28;20185;-69
2022/04/17 09:41:51;;;;;;;7.55;5.20;;;21.50;43.00;;;;;;5094030;28;20055;-68
2022/04/17 09:44:50;;;;;;;7.70;5.35;;;22.20;42.00;;;;;;5092703;28;20485;-69
2022/04/17 09:47:21;;;;;;;6.03;4.95;;;21.80;43.50;;;;;;5094177;28;20027;-69
2022/04/17 09:50:07;;;;;;;6.07;5.40;;;21.60;42.30;;;;;;5092588;28;20512;-69
2022/04/17 09:52:43;;;;;;;7.43;5.05;;;21.50;44.20;;;;;;5094074;28;20024;-69
2022/04/17 09:55:09;;;;;;;6.60;5.25;;;21.80;43.40;;;;;;5094037;28;20024;-68
2022/04/17 09:57:36;;;;;;;6.20;5.22;;;21.70;43.40;;;;;;5093914;28;20028;-69
2022/04/17 10:00:12;;;;;;;6.80;5.22;;;21.90;43.10;;;;;;5092382;28;20482;-69
2022/04/17 10:02:39;;;;;;;10.02;5.82;;;21.70;43.40;;;;;;5093610;28;20539;-68
2022/04/17 10:05:07;;;;;;;9.52;5.68;;;21.70;44.50;;;;;;5093580;28;20027;-69
2022/04/17 10:07:33;;;;;;;6.82;5.35;;;21.20;42.40;;;;;;5092370;28;20493;-69
2022/04/17 10:09:59;;;;;;;7.53;5.15;;;21.20;42.40;;;;;;5093548;28;20111;-69
2022/04/17 10:12:25;;;;;;;8.02;4.93;;;20.70;41.50;;;;;;5092259;28;20060;-69
2022/04/17 10:14:52;;;;;;;6.07;4.65;;;21.20;42.80;;;;;;5093517;28;20032;-69
2022/04/17 10:17:20;;;;;;;6.15;5.22;;;20.00;41.70;;;;;;5093371;28;20024;-69
2022/04/17 10:19:47;;;;;;;6.68;4.90;;;20.30;45.10;;;;;;5093722;28;20390;-70
2022/04/17 10:22:18;;;;;;;6.90;4.70;;;20.80;43.80;;;;;;5093392;28;20103;-68
2022/04/17 10:24:51;;;;;;;8.70;5.40;;;21.60;42.80;;;;;;5093098;28;20041;-68
2022/04/17 10:27:23;;;;;;;6.85;4.97;;;21.80;41.40;;;;;;5093559;28;20068;-69
2022/04/17 10:29:56;;;;;;;7.03;4.80;;;22.50;39.80;;;;;;5093560;28;20020;-69
2022/04/17 10:32:51;;;;;;;8.15;5.18;;;22.30;40.40;;;;;;5093258;28;20031;-69
2022/04/17 10:35:41;;;;;;;7.95;5.32;;;21.90;39.90;;;;;;5091979;28;20081;-68
2022/04/17 10:38:39;;;;;;;6.43;5.57;;;21.10;41.10;;;;;;5091881;28;20031;-69
2022/04/17 10:41:08;;;;;;;9.15;5.25;;;21.20;44.70;;;;;;5093158;28;20030;-69
2022/04/17 10:46:28;;;;;;;6.97;5.38;;;22.10;42.40;;;;;;5090802;28;20436;-70
2022/04/17 10:48:57;;;;;;;7.97;5.75;;;21.90;42.70;;;;;;5090830;28;20028;-70
2022/04/17 10:51:29;;;;;;;7.30;5.80;;;21.20;42.60;;;;;;5090896;28;20024;-70
2022/04/17 10:54:04;;;;;;;8.15;6.05;;;20.70;43.30;;;;;;5090626;28;20033;-70
2022/04/17 10:56:33;;;;;;;6.60;5.90;;;19.60;45.30;;;;;;5089683;28;20038;-69
2022/04/17 10:59:00;;;;;;;7.72;5.75;;;19.50;46.20;;;;;;5090783;28;20024;-69
2022/04/17 11:04:21;;;;;;;8.43;5.90;;;19.00;45.10;;;;;;5111256;27;20914;-70
2022/04/17 11:06:53;;;;;;;7.63;5.72;;;19.30;46.60;;;;;;5111367;28;20422;-69
2022/04/17 11:09:21;;;;;;;7.77;5.50;;;19.80;47.90;;;;;;5111062;28;20020;-70
2022/04/17 11:11:48;;;;;;;7.40;5.50;;;19.20;44.70;;;;;;5110934;28;20058;-70
2022/04/17 11:14:18;;;;;;;12.00;6.07;;;18.50;45.00;;;;;;5109729;28;20024;-69
2022/04/17 11:17:01;;;;;;;8.40;5.82;;;18.20;50.40;;;;;;5110881;28;20020;-69
2022/04/17 11:19:32;;;;;;;8.73;5.88;;;18.70;46.10;;;;;;5110893;28;20024;-69
2022/04/17 11:22:02;;;;;;;6.53;5.25;;;18.60;46.80;;;;;;5109788;28;20054;-69
2022/04/17 11:24:29;;;;;;;6.05;4.63;;;18.80;46.40;;;;;;5111035;28;20024;-69
2022/04/17 11:29:43;;;;;;;5.95;4.95;;;19.00;43.20;;;;;;5070600;28;20357;-69
2022/04/17 11:35:07;;;;;;;5.22;4.20;;;18.80;45.00;;;;;;5090780;28;20348;-69
2022/04/17 11:37:33;;;;;;;8.13;4.50;;;18.20;42.90;;;;;;5090721;28;20394;-69
2022/04/17 11:40:16;;;;;;;4.43;3.70;;;18.20;44.80;;;;;;5090662;28;20018;-69
2022/04/17 11:42:45;;;;;;;6.20;3.95;;;18.40;44.60;;;;;;5090613;28;20025;-69
2022/04/17 11:45:14;;;;;;;6.13;3.80;;;18.60;42.60;;;;;;5090795;28;20024;-69
2022/04/17 11:47:41;;;;;;;4.95;3.30;;;18.60;42.00;;;;;;5090717;28;20032;-69
2022/04/17 11:50:09;;;;;;;3.67;3.10;;;18.20;40.60;;;;;;5089140;28;20444;-68
2022/04/17 11:52:35;;;;;;;3.75;3.10;;;18.10;41.90;;;;;;5090509;28;20020;-69
2022/04/17 11:55:01;;;;;;;7.70;4.82;;;18.10;42.80;;;;;;5090350;28;20025;-69
2022/04/17 11:57:26;;;;;;;6.68;3.45;;;17.90;42.20;;;;;;5090425;28;20027;-69
2022/04/17 11:59:57;;;;;;;4.03;3.20;;;17.80;40.30;;;;;;5090466;28;20021;-69
2022/04/17 12:02:25;;;;;;;5.13;3.60;;;17.90;41.10;;;;;;5090502;28;20032;-69
2022/04/17 12:04:55;;;;;;;4.93;3.90;;;17.90;42.90;;;;;;5090158;28;20021;-69
2022/04/17 12:07:22;;;;;;;6.45;4.18;;;17.80;42.10;;;;;;5090423;28;20056;-69
2022/04/17 12:09:48;;;;;;;8.38;4.32;;;17.40;42.60;;;;;;5090029;28;20035;-69
2022/04/17 12:12:16;;;;;;;6.82;4.38;;;17.80;45.10;;;;;;5090104;28;20024;-69
2022/04/17 12:14:42;;;;;;;4.65;3.13;;;18.30;45.30;;;;;;5089956;28;20024;-69
2022/04/17 12:17:08;;;;;;;5.57;3.72;;;18.20;39.00;;;;;;5090033;28;20509;-69
2022/04/17 12:19:34;;;;;;;4.90;3.70;;;18.10;41.30;;;;;;5089944;28;20025;-69
2022/04/17 12:22:05;;;;;;;6.47;3.70;;;18.30;44.30;;;;;;5089917;28;20020;-69
2022/04/17 12:24:31;;;;;;;4.32;3.50;;;18.10;43.70;;;;;;5088604;28;20030;-68
2022/04/17 12:26:56;;;;;;;6.47;3.63;;;18.00;41.40;;;;;;5089878;28;20399;-69
2022/04/17 12:29:23;;;;;;;6.63;4.10;;;17.90;42.30;;;;;;5089729;28;20029;-69
2022/04/17 12:31:49;;;;;;;5.18;3.08;;;18.20;44.10;;;;;;5089643;28;20062;-69
2022/04/17 12:34:22;;;;;;;3.63;2.63;;;18.20;40.50;;;;;;5089398;28;20457;-69
2022/04/17 12:36:49;;;;;;;5.57;3.28;;;18.40;40.40;;;;;;5089850;28;20482;-69
2022/04/17 12:39:15;;;;;;;5.35;2.83;;;18.40;37.50;;;;;;5089534;28;20016;-69
2022/04/17 12:41:42;;;;;;;5.68;3.80;;;18.40;40.30;;;;;;5089354;28;20484;-69
2022/04/17 12:44:09;;;;;;;4.32;3.28;;;18.50;40.80;;;;;;5089339;28;20027;-69
2022/04/17 12:46:36;;;;;;;5.55;3.80;;;18.60;44.20;;;;;;5075271;28;20020;-69
2022/04/17 12:49:08;;;;;;;5.00;3.90;;;18.50;42.50;;;;;;5076084;28;20024;-69
2022/04/17 12:51:35;;;;;;;5.25;3.78;;;18.30;41.80;;;;;;5075877;28;20021;-68
2022/04/17 12:54:02;;;;;;;6.47;3.55;;;18.00;41.80;;;;;;5075734;28;20474;-68
2022/04/17 12:56:28;;;;;;;6.18;3.58;;;17.70;43.50;;;;;;5074871;28;20029;-69
2022/04/17 12:58:59;;;;;;;4.93;3.38;;;18.10;42.20;;;;;;5075686;28;20433;-69
2022/04/17 13:01:28;;;;;;;5.57;3.75;;;18.00;38.80;;;;;;5075614;28;20419;-69
2022/04/17 13:04:20;;;;;;;6.28;3.40;;;18.30;40.70;;;;;;5075828;28;20053;-69
2022/04/17 13:06:47;;;;;;;4.85;3.78;;;18.20;42.80;;;;;;5075409;28;20538;-69
2022/04/17 13:09:23;;;;;;;7.05;3.70;;;18.50;43.10;;;;;;5075526;28;20467;-69
2022/04/17 13:11:51;;;;;;;7.28;3.75;;;18.70;44.90;;;;;;5075343;28;20455;-69
2022/04/17 13:14:18;;;;;;;4.45;3.60;;;18.30;41.40;;;;;;5075585;28;20036;-69
2022/04/17 13:16:54;;;;;;;5.43;3.55;;;18.10;43.70;;;;;;5075379;28;20018;-69
2022/04/17 13:19:23;;;;;;;4.57;3.17;;;18.30;42.00;;;;;;5075541;28;20048;-69
2022/04/17 13:21:49;;;;;;;4.85;3.72;;;18.10;42.10;;;;;;5074111;28;20091;-69
2022/04/17 13:24:16;;;;;;;6.63;4.00;;;18.50;44.60;;;;;;5075232;28;20467;-69